createdAt,value
2022-09-02T00:00:33.452Z,53.09
2022-09-02T00:03:40.986Z,53.07
2022-09-02T00:06:46.852Z,53.22
2022-09-02T00:09:53.835Z,53.27
2022-09-02T00:12:59.800Z,53.31
2022-09-02T00:16:06.186Z,53.47
2022-09-02T00:19:12.545Z,53.55
2022-09-02T00:22:19.196Z,53.59
2022-09-02T00:25:24.333Z,53.67
2022-09-02T00:28:30.917Z,53.85
2022-09-02T00:31:40.382Z,53.92
2022-09-02T00:34:47.022Z,54.01
2022-09-02T00:37:53.079Z,54.11
2022-09-02T00:41:02.207Z,54.20
2022-09-02T00:44:17.818Z,54.29
2022-09-02T00:47:23.359Z,54.43
2022-09-02T00:50:32.263Z,54.50
2022-09-02T00:53:37.928Z,54.60
2022-09-02T00:56:44.715Z,54.64
2022-09-02T01:00:08.791Z,54.75
2022-09-02T01:03:19.317Z,54.82
2022-09-02T01:06:26.044Z,54.89
2022-09-02T01:09:31.678Z,54.82
2022-09-02T01:12:39.178Z,54.96
2022-09-02T01:15:44.310Z,55.14
2022-09-02T01:18:50.690Z,55.25
2022-09-02T01:22:00.430Z,55.16
2022-09-02T01:25:06.301Z,55.15
2022-09-02T01:28:18.491Z,55.21
2022-09-02T01:31:24.745Z,55.33
2022-09-02T01:34:31.123Z,55.43
2022-09-02T01:37:38.627Z,55.54
2022-09-02T01:40:45.704Z,55.63
2022-09-02T01:43:51.779Z,55.68
2022-09-02T01:46:58.249Z,55.78
2022-09-02T01:50:08.919Z,55.84
2022-09-02T01:53:16.500Z,55.86
2022-09-02T01:56:23.589Z,56.01
2022-09-02T01:59:31.498Z,56.12
2022-09-02T02:02:38.267Z,56.09
2022-09-02T02:05:45.974Z,56.08
2022-09-02T02:08:52.343Z,56.15
2022-09-02T02:11:59.332Z,56.36
2022-09-02T02:15:06.012Z,56.52
2022-09-02T02:18:12.868Z,56.61
2022-09-02T02:21:18.773Z,56.61
2022-09-02T02:24:25.926Z,56.40
2022-09-02T02:27:33.513Z,56.44
2022-09-02T02:30:40.390Z,56.57
2022-09-02T02:33:45.749Z,56.69
2022-09-02T02:36:53.729Z,56.87
2022-09-02T02:39:59.725Z,57.02
2022-09-02T02:43:06.391Z,57.16
2022-09-02T02:46:13.186Z,57.23
2022-09-02T02:49:19.826Z,57.06
2022-09-02T02:52:27.019Z,57.05
2022-09-02T02:55:32.566Z,57.04
2022-09-02T02:58:38.343Z,57.20
2022-09-02T03:01:46.303Z,57.40
2022-09-02T03:04:55.674Z,57.48
2022-09-02T03:08:01.536Z,57.36
2022-09-02T03:11:09.203Z,57.26
2022-09-02T03:14:15.740Z,57.31
2022-09-02T03:17:22.882Z,57.39
2022-09-02T03:20:28.513Z,57.51
2022-09-02T03:23:35.922Z,57.74
2022-09-02T03:26:41.793Z,57.81
2022-09-02T03:29:48.764Z,57.75
2022-09-02T03:32:54.270Z,57.77
2022-09-02T03:36:02.524Z,57.98
2022-09-02T03:39:09.892Z,58.21
2022-09-02T03:42:19.635Z,58.32
2022-09-02T03:45:22.020Z,58.38
2022-09-02T03:48:30.290Z,58.37
2022-09-02T03:51:36.528Z,58.46
2022-09-02T03:54:43.899Z,58.54
2022-09-02T03:57:50.898Z,58.59
2022-09-02T04:00:59.645Z,58.70
2022-09-02T04:04:05.383Z,58.71
2022-09-02T04:07:12.798Z,58.65
2022-09-02T04:10:20.040Z,58.83
2022-09-02T04:13:29.367Z,58.97
2022-09-02T04:16:37.778Z,59.11
2022-09-02T04:19:47.273Z,59.21
2022-09-02T04:22:53.723Z,59.21
2022-09-02T04:25:59.983Z,59.17
2022-09-02T04:29:06.584Z,59.27
2022-09-02T04:32:13.743Z,59.35
2022-09-02T04:35:20.426Z,59.46
2022-09-02T04:38:28.215Z,59.53
2022-09-02T04:41:39.212Z,59.56
2022-09-02T04:44:46.175Z,59.58
2022-09-02T04:47:53.991Z,59.60
2022-09-02T04:51:03.737Z,59.62
2022-09-02T04:54:09.887Z,59.66
2022-09-02T04:57:17.783Z,59.71
2022-09-02T05:00:26.847Z,59.73
2022-09-02T05:03:32.824Z,59.80
2022-09-02T05:06:44.277Z,59.84
2022-09-02T05:09:52.497Z,59.92
2022-09-02T05:13:03.878Z,59.95
2022-09-02T05:16:11.633Z,59.98
2022-09-02T05:19:21.049Z,59.97
2022-09-02T05:22:27.012Z,60.01
2022-09-02T05:25:36.751Z,60.04
2022-09-02T05:28:43.680Z,60.10
2022-09-02T05:31:54.167Z,60.14
2022-09-02T05:35:03.504Z,60.14
2022-09-02T05:38:10.575Z,60.21
2022-09-02T05:41:22.791Z,60.25
2022-09-02T05:44:30.713Z,60.28
2022-09-02T05:47:38.509Z,60.30
2022-09-02T05:50:43.481Z,60.23
2022-09-02T05:53:54.987Z,60.19
2022-09-02T05:57:03.968Z,60.16
2022-09-02T06:00:17.787Z,60.18
2022-09-02T06:03:26.279Z,60.16
2022-09-02T06:06:32.152Z,60.17
2022-09-02T06:09:39.332Z,60.13
2022-09-02T06:12:47.511Z,60.11
2022-09-02T06:15:59.163Z,60.10
2022-09-02T06:19:06.704Z,60.04
2022-09-02T06:22:12.855Z,59.98
2022-09-02T06:25:18.661Z,59.91
2022-09-02T06:28:24.831Z,59.82
2022-09-02T06:31:36.895Z,59.80
2022-09-02T06:34:44.132Z,59.74
2022-09-02T06:37:57.842Z,59.66
2022-09-02T06:41:08.300Z,59.64
2022-09-02T06:44:17.191Z,59.47
2022-09-02T06:47:23.461Z,59.34
2022-09-02T06:50:30.163Z,59.26
2022-09-02T06:53:37.936Z,59.16
2022-09-02T06:56:49.985Z,59.03
2022-09-02T07:00:02.033Z,58.91
2022-09-02T07:03:22.926Z,58.78
2022-09-02T07:06:32.409Z,58.70
2022-09-02T07:09:41.243Z,58.63
2022-09-02T07:12:51.969Z,58.47
2022-09-02T07:15:58.745Z,58.32
2022-09-02T07:19:15.113Z,58.22
2022-09-02T07:22:21.115Z,58.06
2022-09-02T07:25:26.710Z,57.95
2022-09-02T07:28:34.967Z,57.87
2022-09-02T07:31:45.537Z,57.80
2022-09-02T07:34:55.570Z,57.76
2022-09-02T07:38:00.828Z,57.71
2022-09-02T07:41:17.422Z,57.60
2022-09-02T07:44:23.305Z,57.49
2022-09-02T07:47:31.512Z,57.35
2022-09-02T07:50:34.921Z,57.20
2022-09-02T07:53:44.348Z,57.04
2022-09-02T07:56:53.315Z,56.85
2022-09-02T07:59:59.264Z,56.79
2022-09-02T08:06:33.657Z,56.64
2022-09-02T08:09:27.855Z,56.45
2022-09-02T08:12:33.848Z,56.32
2022-09-02T08:15:46.965Z,56.24
2022-09-02T08:19:06.215Z,56.09
2022-09-02T08:22:14.852Z,56.02
2022-09-02T08:25:22.489Z,55.90
2022-09-02T08:28:29.255Z,55.75
2022-09-02T08:31:34.437Z,55.66
2022-09-02T08:34:39.499Z,55.43
2022-09-02T08:37:45.877Z,55.20
2022-09-02T08:40:55.410Z,55.09
2022-09-02T08:44:00.511Z,54.97
2022-09-02T08:47:11.493Z,54.84
2022-09-02T08:50:25.159Z,54.65
2022-09-02T08:53:53.504Z,54.57
2022-09-02T08:56:59.922Z,54.36
2022-09-02T09:00:07.129Z,54.11
2022-09-02T09:03:33.011Z,53.87
2022-09-02T09:06:51.078Z,53.77
2022-09-02T09:10:27.663Z,53.57
2022-09-02T09:13:46.870Z,53.42
2022-09-02T09:17:10.079Z,53.26
2022-09-02T09:20:23.563Z,53.10
2022-09-02T09:23:47.002Z,52.92
2022-09-02T09:26:55.854Z,52.77
2022-09-02T09:30:00.612Z,52.59
2022-09-02T09:33:12.266Z,52.45
2022-09-02T09:36:17.966Z,52.33
2022-09-02T09:39:46.340Z,52.09
2022-09-02T09:42:53.692Z,51.86
2022-09-02T09:46:03.963Z,51.74
2022-09-02T09:49:10.724Z,51.57
2022-09-02T09:52:19.209Z,51.49
2022-09-02T09:55:39.768Z,51.30
2022-09-02T09:58:47.828Z,51.02
2022-09-02T10:01:53.681Z,50.83
2022-09-02T10:04:59.807Z,50.70
2022-09-02T10:08:20.999Z,50.55
2022-09-02T10:11:40.231Z,50.26
2022-09-02T10:15:01.938Z,50.11
2022-09-02T10:18:43.169Z,49.95
2022-09-02T10:22:22.639Z,49.80
2022-09-02T10:26:09.546Z,49.71
2022-09-02T10:29:32.515Z,49.49
2022-09-02T10:33:03.213Z,49.20
2022-09-02T10:36:25.506Z,49.11
2022-09-02T10:40:07.746Z,48.91
2022-09-02T10:43:25.819Z,48.79
2022-09-02T10:46:34.560Z,48.58
2022-09-02T10:50:29.832Z,48.35
2022-09-02T10:54:23.475Z,48.07
2022-09-02T10:57:38.857Z,47.89
2022-09-02T11:00:45.092Z,47.84
2022-09-02T11:04:09.968Z,47.71
2022-09-02T11:07:15.697Z,47.47
2022-09-02T11:10:42.008Z,47.34
2022-09-02T11:14:12.898Z,47.31
2022-09-02T11:21:04.504Z,46.90
2022-09-02T11:28:54.823Z,46.32
2022-09-02T11:32:08.422Z,46.09
2022-09-02T11:35:23.638Z,45.74
2022-09-02T11:38:47.412Z,45.63
2022-09-02T11:42:16.817Z,45.49
2022-09-02T11:46:01.819Z,45.24
2022-09-02T11:49:34.701Z,45.01
2022-09-02T11:53:15.244Z,44.74
2022-09-02T11:56:44.327Z,44.45
2022-09-02T12:00:18.096Z,44.23
2022-09-02T12:03:44.155Z,44.23
2022-09-02T12:06:38.671Z,43.99
2022-09-02T12:10:04.058Z,43.73
2022-09-02T12:13:17.109Z,43.42
2022-09-02T12:16:35.671Z,43.23
2022-09-02T12:19:43.773Z,42.96
2022-09-02T12:22:51.743Z,42.69
2022-09-02T12:26:04.514Z,42.47
2022-09-02T12:29:39.852Z,42.29
2022-09-02T12:33:08.841Z,42.19
2022-09-02T12:36:25.207Z,41.97
2022-09-02T12:39:57.163Z,41.86
2022-09-02T12:43:14.992Z,41.68
2022-09-02T12:47:00.635Z,41.65
2022-09-02T12:50:23.135Z,41.47
2022-09-02T12:53:46.001Z,41.17
2022-09-02T12:56:54.119Z,41.02
2022-09-02T12:59:54.932Z,40.93
2022-09-02T13:03:23.481Z,40.87
2022-09-02T13:06:44.588Z,40.63
2022-09-02T13:10:10.959Z,40.47
2022-09-02T13:13:58.663Z,40.31
2022-09-02T13:17:37.090Z,40.22
2022-09-02T13:21:18.818Z,40.05
2022-09-02T13:24:33.671Z,39.94
2022-09-02T13:28:17.643Z,39.76
2022-09-02T13:31:41.083Z,39.51
2022-09-02T13:34:48.379Z,39.36
2022-09-02T13:37:57.345Z,39.34
2022-09-02T13:41:02.064Z,39.22
2022-09-02T13:44:24.670Z,39.22
2022-09-02T13:47:33.870Z,39.16
2022-09-02T13:50:42.830Z,38.98
2022-09-02T13:54:21.743Z,38.86
2022-09-02T13:57:01.459Z,38.84
2022-09-02T14:00:09.622Z,38.79
2022-09-02T14:03:32.921Z,38.67
2022-09-02T14:06:44.354Z,38.62
2022-09-02T14:09:53.799Z,38.49
2022-09-02T14:13:00.018Z,38.39
2022-09-02T14:16:06.145Z,38.38
2022-09-02T14:19:23.411Z,38.25
2022-09-02T14:22:44.940Z,38.21
2022-09-02T14:25:52.642Z,38.12
2022-09-02T14:29:01.683Z,38.09
2022-09-02T14:32:28.513Z,37.96
2022-09-02T14:35:36.545Z,37.83
2022-09-02T14:38:53.872Z,37.69
2022-09-02T14:42:05.345Z,37.63
2022-09-02T14:45:13.106Z,37.54
2022-09-02T14:48:29.783Z,37.54
2022-09-02T14:51:36.971Z,37.54
2022-09-02T14:54:59.224Z,37.46
2022-09-02T14:58:09.695Z,37.45
2022-09-02T15:01:19.799Z,37.39
2022-09-02T15:04:31.173Z,37.31
2022-09-02T15:07:38.086Z,37.26
2022-09-02T15:10:48.222Z,37.07
2022-09-02T15:13:54.802Z,37.02
2022-09-02T15:17:04.639Z,37.00
2022-09-02T15:20:13.918Z,37.03
2022-09-02T15:23:21.358Z,36.96
2022-09-02T15:26:28.086Z,36.92
2022-09-02T15:29:39.443Z,36.89
2022-09-02T15:32:48.374Z,36.89
2022-09-02T15:35:56.628Z,36.87
2022-09-02T15:39:02.853Z,36.81
2022-09-02T15:42:08.055Z,36.78
2022-09-02T15:45:11.917Z,36.80
2022-09-02T15:48:18.069Z,36.81
2022-09-02T15:51:28.413Z,36.84
2022-09-02T15:54:38.051Z,36.86
2022-09-02T15:57:43.239Z,36.83
2022-09-02T16:00:49.395Z,36.86
2022-09-02T16:03:55.223Z,36.93
2022-09-02T16:07:03.065Z,36.98
2022-09-02T16:10:08.963Z,37.08
2022-09-02T16:13:16.030Z,37.13
2022-09-02T16:16:25.086Z,37.16
2022-09-02T16:19:30.625Z,37.28
2022-09-02T16:22:37.347Z,37.36
2022-09-02T16:25:42.973Z,37.40
2022-09-02T16:28:52.870Z,37.48
2022-09-02T16:32:23.773Z,37.56
2022-09-02T16:35:09.165Z,37.61
2022-09-02T16:38:15.637Z,37.71
2022-09-02T16:41:41.777Z,37.82
2022-09-02T16:44:51.523Z,37.93
2022-09-02T16:47:57.096Z,38.05
2022-09-02T16:51:04.347Z,38.20
2022-09-02T16:54:17.765Z,38.34
2022-09-02T16:57:22.656Z,38.45
2022-09-02T17:00:30.687Z,38.54
2022-09-02T17:03:37.804Z,38.63
2022-09-02T17:06:46.663Z,38.75
2022-09-02T17:09:52.131Z,38.90
2022-09-02T17:12:59.608Z,39.02
2022-09-02T17:16:06.184Z,39.17
2022-09-02T17:19:14.029Z,39.27
2022-09-02T17:22:19.948Z,39.43
2022-09-02T17:25:24.967Z,39.58
2022-09-02T17:28:30.818Z,39.66
2022-09-02T17:31:46.833Z,39.77
2022-09-02T17:34:52.233Z,39.88
2022-09-02T17:37:59.851Z,40.06
2022-09-02T17:41:24.683Z,40.21
2022-09-02T17:44:30.098Z,40.29
2022-09-02T17:47:37.968Z,40.42
2022-09-02T17:50:44.512Z,40.54
2022-09-02T17:53:50.054Z,40.69
2022-09-02T17:57:25.334Z,40.77
2022-09-02T18:00:35.166Z,40.93
2022-09-02T18:03:51.683Z,41.19
2022-09-02T18:06:57.941Z,41.34
2022-09-02T18:10:04.508Z,41.47
2022-09-02T18:13:10.605Z,41.57
2022-09-02T18:16:39.160Z,41.64
2022-09-02T18:19:59.608Z,41.79
2022-09-02T18:23:46.909Z,41.93
2022-09-02T18:27:26.572Z,42.05
2022-09-02T18:30:56.915Z,42.17
2022-09-02T18:34:30.536Z,42.38
2022-09-02T18:38:08.737Z,42.52
2022-09-02T18:41:40.016Z,42.65
2022-09-02T18:44:54.952Z,42.68
2022-09-02T18:48:09.218Z,42.81
2022-09-02T18:51:42.459Z,42.93
2022-09-02T18:55:00.083Z,42.98
2022-09-02T18:58:13.267Z,43.04
2022-09-02T19:01:46.111Z,43.13
2022-09-02T19:04:56.118Z,43.17
2022-09-02T19:08:20.390Z,43.32
2022-09-02T19:11:30.246Z,43.52
2022-09-02T19:14:43.086Z,43.69
2022-09-02T19:17:50.981Z,43.81
2022-09-02T19:20:59.983Z,43.94
2022-09-02T19:24:07.204Z,44.02
2022-09-02T19:27:24.108Z,44.08
2022-09-02T19:30:32.079Z,44.12
2022-09-02T19:33:37.967Z,44.27
2022-09-02T19:36:46.367Z,44.35
2022-09-02T19:39:54.438Z,44.36
2022-09-02T19:43:00.334Z,44.36
2022-09-02T19:46:08.289Z,44.49
2022-09-02T19:49:14.814Z,44.60
2022-09-02T19:52:21.091Z,44.72
2022-09-02T19:55:31.262Z,44.73
2022-09-02T19:58:37.311Z,44.74
2022-09-02T20:01:44.930Z,44.90
2022-09-02T20:04:50.663Z,44.96
2022-09-02T20:07:58.345Z,44.98
2022-09-02T20:11:17.432Z,45.11
2022-09-02T20:17:31.175Z,45.22
2022-09-02T20:20:39.091Z,45.15
2022-09-02T20:23:45.655Z,45.28
2022-09-02T20:27:22.434Z,45.46
2022-09-02T20:30:33.325Z,45.62
2022-09-02T20:33:39.307Z,45.64
2022-09-02T20:37:00.224Z,45.69
2022-09-02T20:40:34.648Z,45.75
2022-09-02T20:43:58.229Z,45.96
2022-09-02T20:47:39.079Z,46.12
2022-09-02T20:51:05.565Z,46.18
2022-09-02T20:54:27.739Z,46.23
2022-09-02T20:58:06.861Z,46.33
2022-09-02T21:01:23.786Z,46.47
2022-09-02T21:04:48.041Z,46.52
2022-09-02T21:08:00.884Z,46.49
2022-09-02T21:11:13.917Z,46.61
2022-09-02T21:14:41.079Z,46.68
2022-09-02T21:18:06.901Z,46.71
2022-09-02T21:21:51.864Z,46.81
2022-09-02T21:25:04.587Z,46.84
2022-09-02T21:28:30.181Z,46.89
2022-09-02T21:31:52.301Z,46.95
2022-09-02T21:35:11.311Z,47.07
2022-09-02T21:38:29.355Z,47.09
2022-09-02T21:41:55.673Z,47.17
2022-09-02T21:45:22.840Z,47.31
2022-09-02T21:48:54.723Z,47.38
2022-09-02T21:52:25.765Z,47.47
2022-09-02T21:55:39.604Z,47.49
2022-09-02T21:58:53.857Z,47.53
2022-09-02T22:02:47.633Z,47.57
2022-09-02T22:06:22.574Z,47.71
2022-09-02T22:09:37.131Z,47.78
2022-09-02T22:12:51.913Z,47.75
2022-09-02T22:16:10.815Z,47.79
2022-09-02T22:19:22.824Z,47.90
2022-09-02T22:22:33.630Z,47.89
2022-09-02T22:25:42.767Z,47.80
2022-09-02T22:28:56.295Z,47.80
2022-09-02T22:32:03.853Z,47.90
2022-09-02T22:35:43.537Z,47.97
2022-09-02T22:38:54.515Z,48.05
2022-09-02T22:42:15.537Z,48.01
2022-09-02T22:46:02.404Z,48.08
2022-09-02T22:49:34.317Z,48.08
2022-09-02T22:53:00.149Z,48.17
2022-09-02T22:56:16.329Z,48.17
2022-09-02T22:59:37.008Z,48.33
2022-09-02T23:03:04.345Z,48.50
2022-09-02T23:06:43.245Z,48.55
2022-09-02T23:09:50.525Z,48.46
2022-09-02T23:13:02.336Z,48.54
2022-09-02T23:16:21.742Z,48.63
2022-09-02T23:19:55.301Z,48.60
2022-09-02T23:23:40.058Z,48.59
2022-09-02T23:27:00.070Z,48.64
2022-09-02T23:30:05.839Z,48.79
2022-09-02T23:33:31.929Z,48.79
2022-09-02T23:36:48.642Z,48.89
2022-09-02T23:40:05.257Z,48.95
2022-09-02T23:43:11.717Z,48.87
2022-09-02T23:46:30.457Z,48.84
2022-09-02T23:50:12.589Z,48.87
2022-09-02T23:53:24.791Z,48.98
2022-09-02T23:57:07.717Z,49.02
